Time;durP1;ratioP1;P1;durP2;ratioP2;P2;SDS_P1;SDS_P2;PMS_P1;PMS_P2;Temp;Humidity;BMP_temperature;BMP_pressure;BME280_temperature;BME280_humidity;BME280_pressure;Samples;Min_cycle;Max_cycle;Signal;HPM_P1;HPM_P2
2023/06/14 00:04:18;;;;;;;4.67;3.07;;;13.40;95.90;;;12.21;91.44;99898.50;10426717;27;97322;-85
2023/06/14 00:09:21;;;;;;;6.17;3.80;;;13.40;96.50;;;12.22;92.09;99889.50;10407868;27;96500;-86
2023/06/14 00:14:24;;;;;;;4.60;3.20;;;13.40;96.90;;;12.20;92.62;99894.19;10421101;27;97586;-86
2023/06/14 00:19:29;;;;;;;6.17;3.43;;;13.40;97.40;;;12.14;93.03;99892.28;10389035;27;96707;-86
2023/06/14 00:24:32;;;;;;;5.40;3.27;;;13.40;97.90;;;12.10;93.58;99898.16;10373526;27;97645;-85
2023/06/14 00:29:36;;;;;;;5.23;3.50;;;13.30;98.50;;;12.03;94.03;99892.75;10393850;27;96968;-86
2023/06/14 00:34:39;;;;;;;4.47;2.97;;;13.30;99.00;;;11.93;94.43;99901.00;10414016;27;96659;-85
2023/06/14 00:39:43;;;;;;;4.73;3.20;;;13.20;99.40;;;11.88;94.87;99899.91;10432620;27;97257;-85
2023/06/14 00:44:46;;;;;;;5.57;2.93;;;13.10;99.90;;;11.75;94.95;99904.00;10417794;27;96756;-85
2023/06/14 00:49:55;;;;;;;4.47;3.20;;;13.00;99.90;;;11.71;95.22;99910.69;10391382;27;98190;-85
2023/06/14 00:54:58;;;;;;;7.73;3.63;;;12.90;99.90;;;11.61;94.51;99914.63;10409811;27;97483;-85
2023/06/14 01:00:02;;;;;;;4.83;3.30;;;12.80;99.90;;;11.55;95.54;99912.69;10412977;27;97097;-85
2023/06/14 01:05:08;;;;;;;6.07;3.50;;;12.80;99.90;;;11.44;96.49;99914.78;10406138;27;97298;-85
2023/06/14 01:10:51;;;;;;;5.73;3.80;;;12.70;99.90;;;11.35;97.42;99907.06;10422091;27;96838;-85
2023/06/14 01:15:55;;;;;;;;;;;12.60;99.90;;;11.26;98.61;99906.28;10419968;27;97505;-85
2023/06/14 01:20:59;;;;;;;5.03;3.27;;;12.50;99.90;;;11.19;98.85;99910.69;10404922;27;97489;-85
2023/06/14 01:26:05;;;;;;;8.10;4.37;;;12.50;99.90;;;11.14;99.59;99897.91;10422894;27;96679;-85
2023/06/14 01:31:12;;;;;;;4.30;3.50;;;12.40;99.90;;;11.08;100.00;99903.13;10406924;27;96582;-85
2023/06/14 01:36:16;;;;;;;6.80;4.17;;;12.30;99.90;;;11.06;100.00;99897.97;10402287;27;96573;-85
2023/06/14 01:41:21;;;;;;;6.70;4.20;;;12.30;99.90;;;11.03;100.00;99900.97;10391104;27;96522;-86
2023/06/14 01:46:25;;;;;;;6.90;4.67;;;12.30;99.90;;;11.03;100.00;99905.47;10425687;27;96596;-85
2023/06/14 01:51:28;;;;;;;6.20;4.30;;;12.20;99.90;;;11.03;100.00;99905.47;10386365;27;97479;-85
2023/06/14 01:56:32;;;;;;;7.63;5.03;;;12.30;99.90;;;10.96;100.00;99905.38;10409138;27;98660;-85
2023/06/14 02:01:36;;;;;;;7.20;5.00;;;12.20;99.90;;;10.85;100.00;99903.94;10418827;27;96874;-85
2023/06/14 02:06:39;;;;;;;7.20;4.20;;;12.10;99.90;;;10.86;100.00;99916.25;10436370;27;96669;-85
2023/06/14 02:11:43;;;;;;;8.10;4.60;;;12.00;99.90;;;10.82;100.00;99914.94;10409861;27;98723;-86
2023/06/14 02:16:48;;;;;;;7.80;5.50;;;12.00;99.90;;;10.71;100.00;99907.38;10421164;27;96690;-85
2023/06/14 02:21:52;;;;;;;6.63;4.33;;;11.90;99.90;;;10.70;100.00;99917.16;10383568;28;97517;-85
2023/06/14 02:26:55;;;;;;;7.63;5.33;;;11.90;99.90;;;10.70;100.00;99921.66;10406285;27;98216;-85
2023/06/14 02:31:59;;;;;;;9.07;5.60;;;11.90;99.90;;;10.65;100.00;99921.34;10419034;27;96826;-85
2023/06/14 02:37:03;;;;;;;8.77;5.73;;;11.80;99.90;;;10.66;100.00;99921.16;10444075;27;96656;-85
2023/06/14 02:42:07;;;;;;;8.90;6.20;;;11.90;99.90;;;10.67;100.00;99914.84;10437430;27;98222;-86
2023/06/14 02:47:10;;;;;;;10.43;6.63;;;11.90;99.90;;;10.66;100.00;99920.34;10442997;27;96503;-85
2023/06/14 02:52:13;;;;;;;10.47;7.23;;;11.90;99.90;;;10.60;100.00;99921.03;10428153;27;97345;-86
2023/06/14 02:57:16;;;;;;;11.63;7.03;;;11.80;99.90;;;10.57;100.00;99916.09;10442779;27;96982;-85
2023/06/14 03:02:19;;;;;;;10.67;6.40;;;11.70;99.90;;;10.57;100.00;99916.09;10426726;27;96576;-85
2023/06/14 03:07:23;;;;;;;8.50;5.73;;;11.70;99.90;;;10.59;100.00;99914.91;10431204;27;96627;-85
2023/06/14 03:12:26;;;;;;;9.27;6.07;;;11.80;99.90;;;10.60;100.00;99910.41;10420355;27;96784;-85
2023/06/14 03:17:32;;;;;;;10.33;5.47;;;11.80;99.90;;;10.67;100.00;99909.53;10408300;27;96698;-85
2023/06/14 03:22:35;;;;;;;7.00;5.23;;;11.90;99.90;;;10.70;100.00;99917.16;10405750;27;96901;-85
2023/06/14 03:27:39;;;;;;;7.83;4.87;;;12.00;99.90;;;10.77;100.00;99908.50;10398243;27;96596;-85
2023/06/14 03:32:42;;;;;;;7.77;5.47;;;12.00;99.90;;;10.82;100.00;99920.25;10420202;27;97596;-85
2023/06/14 03:37:46;;;;;;;8.83;5.47;;;12.00;99.90;;;10.89;100.00;99918.53;10425843;27;96767;-85
2023/06/14 03:42:49;;;;;;;7.53;5.33;;;12.10;99.90;;;11.01;100.00;99918.97;10433738;27;96785;-86
2023/06/14 03:47:52;;;;;;;9.93;5.20;;;12.20;99.90;;;11.13;100.00;99916.72;10422766;27;96588;-86
2023/06/14 03:52:56;;;;;;;9.20;6.57;;;12.30;99.90;;;11.26;100.00;99908.94;10427017;27;98153;-85
2023/06/14 03:57:59;;;;;;;9.23;5.97;;;12.50;99.90;;;11.44;100.00;99921.94;10390221;27;96531;-86
2023/06/14 04:03:04;;;;;;;8.40;6.10;;;12.60;99.90;;;11.62;100.00;99925.09;10418611;27;98688;-86
2023/06/14 04:08:09;;;;;;;8.07;6.03;;;12.80;99.90;;;11.81;100.00;99915.78;10396756;27;98391;-86
2023/06/14 04:13:13;;;;;;;9.07;5.40;;;13.00;99.90;;;12.00;100.00;99923.25;10416464;27;97326;-86
2023/06/14 04:18:16;;;;;;;9.57;5.10;;;13.20;99.90;;;12.20;100.00;99930.66;10419066;27;98470;-85
2023/06/14 04:23:19;;;;;;;6.97;4.37;;;13.30;99.90;;;12.40;100.00;99936.25;10427377;27;96735;-86
2023/06/14 04:28:25;;;;;;;8.20;4.93;;;13.50;99.90;;;12.63;100.00;99936.13;10405712;27;98578;-86
2023/06/14 04:33:28;;;;;;;7.83;5.10;;;13.70;99.90;;;12.80;100.00;99929.53;10440594;27;98294;-86
2023/06/14 04:38:34;;;;;;;7.20;4.83;;;13.90;99.90;;;12.97;100.00;99930.13;10412266;27;97485;-86
2023/06/14 04:43:39;;;;;;;7.00;5.47;;;14.10;99.90;;;13.19;100.00;99938.94;10436603;27;96639;-85
2023/06/14 04:48:43;;;;;;;9.70;6.23;;;14.30;99.90;;;13.39;100.00;99938.16;10425682;27;96955;-87
2023/06/14 04:53:47;;;;;;;8.70;5.93;;;14.50;99.90;;;13.58;100.00;99941.19;10423180;27;96519;-84
2023/06/14 04:58:52;;;;;;;12.38;6.80;;;14.70;99.90;;;13.74;100.00;99946.25;10423519;27;96900;-84
2023/06/14 05:03:56;;;;;;;10.98;7.55;;;14.90;99.90;;;13.86;99.00;99955.38;10409988;27;97371;-85
2023/06/14 05:08:59;;;;;;;10.23;7.07;;;15.00;99.90;;;13.99;98.40;99957.28;10416511;27;98341;-85
2023/06/14 05:14:02;;;;;;;9.93;6.60;;;15.10;99.90;;;14.19;97.87;99941.38;10438169;27;98449;-85
2023/06/14 05:19:06;;;;;;;9.48;7.03;;;15.30;99.90;;;14.37;96.62;99951.53;10410508;27;97640;-85
2023/06/14 05:24:11;;;;;;;10.40;7.30;;;15.50;99.90;;;14.53;96.16;99935.19;10438853;27;96593;-86
2023/06/14 05:29:14;;;;;;;9.95;7.43;;;15.70;99.90;;;14.77;94.74;99939.19;10395951;27;98046;-85
2023/06/14 05:34:17;;;;;;;9.02;6.18;;;15.90;99.90;;;15.00;93.90;99936.16;10435204;27;96662;-85
2023/06/14 05:39:20;;;;;;;12.45;7.13;;;16.10;99.90;;;15.19;91.47;99935.34;10401730;27;96941;-86
2023/06/14 05:44:23;;;;;;;15.02;7.00;;;16.30;99.90;;;15.36;90.63;99943.00;10420174;27;99258;-85
2023/06/14 05:49:26;;;;;;;11.07;7.28;;;16.50;99.90;;;15.53;89.19;99941.53;10431947;27;96605;-86
2023/06/14 05:54:30;;;;;;;15.10;8.60;;;16.70;99.90;;;15.65;88.38;99939.09;10426559;27;96523;-87
2023/06/14 05:59:33;;;;;;;10.63;6.75;;;16.80;99.90;;;15.76;86.68;99928.56;10419330;27;97052;-86
2023/06/14 06:04:37;;;;;;;9.68;6.88;;;16.90;99.90;;;16.02;85.57;99943.81;10441294;27;96950;-88
2023/06/14 06:09:40;;;;;;;12.25;7.40;;;17.20;99.90;;;16.16;84.58;99941.91;10428383;27;96593;-87
2023/06/14 06:14:43;;;;;;;10.95;7.28;;;17.30;99.90;;;16.29;81.75;99941.84;10433723;27;96964;-86
2023/06/14 06:19:46;;;;;;;11.38;7.18;;;17.50;99.90;;;16.31;82.31;99944.31;10404664;28;96644;-86
2023/06/14 06:24:49;;;;;;;8.52;6.93;;;17.50;99.90;;;16.30;82.24;99951.53;10407481;27;97252;-86
2023/06/14 06:29:52;;;;;;;17.83;7.47;;;17.50;99.90;;;16.32;82.77;99951.34;10410544;27;98544;-86
2023/06/14 06:34:56;;;;;;;13.05;7.78;;;17.50;99.90;;;16.43;83.12;99947.19;10391479;27;98541;-87
2023/06/14 06:39:59;;;;;;;12.00;6.72;;;17.60;99.90;;;16.61;82.82;99949.97;10438588;27;97655;-86
2023/06/14 06:45:03;;;;;;;10.23;7.93;;;17.70;99.90;;;16.85;83.07;99946.63;10443481;27;98647;-86
2023/06/14 06:50:07;;;;;;;8.65;6.85;;;18.00;99.90;;;17.01;80.25;99944.44;10411972;27;97397;-86
2023/06/14 06:55:11;;;;;;;9.05;6.75;;;18.20;99.90;;;17.03;78.81;99937.00;10422175;27;96937;-85
2023/06/14 07:00:17;;;;;;;9.75;6.68;;;18.20;99.90;;;17.18;79.05;99920.59;10422692;27;96525;-86
2023/06/14 07:05:21;;;;;;;10.35;6.60;;;18.30;99.90;;;17.20;77.69;99937.31;10424422;27;96520;-85
2023/06/14 07:10:25;;;;;;;11.23;7.47;;;18.30;99.90;;;17.25;77.82;99945.53;10421663;27;96580;-86
2023/06/14 07:15:28;;;;;;;9.68;7.28;;;18.40;99.90;;;17.43;78.37;99950.16;10406575;27;96664;-86
2023/06/14 07:20:32;;;;;;;11.50;7.20;;;18.60;99.90;;;17.60;75.78;99943.19;10402187;27;98006;-86
2023/06/14 07:25:36;;;;;;;9.52;5.90;;;18.80;99.90;;;17.90;75.08;99936.13;10430245;27;96903;-86
2023/06/14 07:30:39;;;;;;;10.65;5.72;;;19.00;99.90;;;18.37;74.00;99944.53;10427961;27;96779;-87
2023/06/14 07:35:42;;;;;;;7.00;5.40;;;19.40;99.90;;;19.01;73.32;99939.56;10426764;27;98071;-87
2023/06/14 07:40:47;;;;;;;9.40;6.38;;;19.80;99.90;;;19.74;67.44;99933.88;10408633;27;96828;-87
2023/06/14 07:45:50;;;;;;;8.95;6.32;;;20.30;99.00;;;19.85;64.75;99940.34;10416710;27;96700;-86
2023/06/14 07:51:08;;;;;;;9.15;6.55;;;20.60;97.70;;;19.95;64.11;99940.56;10423031;27;96796;-86
2023/06/14 07:56:11;;;;;;;7.50;5.57;;;20.80;96.80;;;20.04;63.73;99928.38;10387524;27;96678;-87
2023/06/14 08:01:15;;;;;;;9.80;5.53;;;20.90;96.30;;;20.09;62.93;99929.50;10422033;27;96584;-86
2023/06/14 08:06:18;;;;;;;8.18;5.20;;;21.10;95.60;;;20.16;62.72;99931.03;10415794;27;96621;-86
2023/06/14 08:11:23;;;;;;;8.65;4.85;;;21.20;95.10;;;20.25;62.40;99923.38;10419901;27;96815;-86
2023/06/14 08:16:27;;;;;;;8.15;5.38;;;21.30;94.80;;;20.35;62.10;99930.88;10400129;27;98510;-86
2023/06/14 08:21:33;;;;;;;7.00;5.10;;;21.40;94.40;;;20.42;61.56;99920.78;10409230;27;99187;-85
2023/06/14 08:26:36;;;;;;;6.78;4.35;;;21.50;94.10;;;20.43;61.29;99920.53;10395908;27;98602;-86
2023/06/14 08:31:39;;;;;;;7.15;4.53;;;21.50;93.60;;;20.41;60.51;99925.34;10401610;27;98666;-83
2023/06/14 08:36:42;;;;;;;8.20;5.03;;;21.50;93.30;;;20.34;60.27;99935.47;10409591;27;96610;-86
2023/06/14 08:41:50;;;;;;;8.55;4.38;;;21.50;93.00;;;20.30;60.96;99942.38;10424224;27;97423;-86
2023/06/14 08:46:59;;;;;;;8.63;4.38;;;21.50;93.30;;;20.36;61.67;99944.13;10434596;27;97556;-86
2023/06/14 08:52:02;;;;;;;8.75;5.10;;;21.50;93.30;;;20.40;61.31;99948.00;10424107;27;98264;-86
2023/06/14 08:57:07;;;;;;;12.30;5.13;;;21.50;93.00;;;20.41;60.33;99955.03;10424755;27;96734;-86
2023/06/14 09:02:13;;;;;;;7.25;4.90;;;21.60;92.70;;;20.39;60.15;99964.41;10406313;27;96582;-86
2023/06/14 09:07:17;;;;;;;6.05;4.30;;;21.60;92.30;;;20.34;60.02;99962.44;10421547;27;96492;-86
2023/06/14 09:12:20;;;;;;;9.80;4.90;;;21.50;92.20;;;20.34;60.62;99958.94;10399763;27;96589;-86
2023/06/14 09:17:23;;;;;;;7.30;4.00;;;21.50;92.10;;;20.41;60.34;99955.03;10401823;27;96624;-85
2023/06/14 09:22:30;;;;;;;8.13;4.63;;;21.50;92.20;;;20.55;61.86;99963.72;10433131;27;97482;-85
2023/06/14 09:27:33;;;;;;;7.95;4.53;;;21.70;92.60;;;20.49;60.72;99972.75;10427844;27;96826;-84
2023/06/14 09:32:40;;;;;;;9.10;4.22;;;21.70;92.10;;;20.49;60.91;99967.38;10406397;27;97219;-85
2023/06/14 09:37:43;;;;;;;10.38;4.50;;;21.70;92.00;;;20.55;58.66;99959.13;10405367;27;96616;-85
2023/06/14 09:42:48;;;;;;;7.50;4.53;;;21.70;91.30;;;20.50;58.03;99955.50;10395624;27;96961;-85
2023/06/14 09:47:51;;;;;;;6.53;3.92;;;21.60;90.80;;;20.70;57.77;99953.25;10407464;27;96429;-85
2023/06/14 09:53:12;;;;;;;5.38;4.10;;;21.80;90.90;;;21.00;58.53;99950.28;10410680;27;96569;-85
2023/06/14 09:58:19;;;;;;;5.38;3.70;;;22.10;90.70;;;21.18;56.88;99934.94;10405377;27;96585;-85
2023/06/14 10:03:28;;;;;;;5.65;3.33;;;22.40;90.30;;;21.28;55.32;99944.00;10420511;27;96685;-84
2023/06/14 10:08:40;;;;;;;3.72;2.55;;;22.50;89.40;;;21.32;54.90;99933.56;10406094;27;96546;-85
2023/06/14 10:13:44;;;;;;;4.10;2.38;;;22.50;87.60;;;21.28;50.96;99937.78;10421322;27;96572;-85
2023/06/14 10:18:55;;;;;;;4.82;2.50;;;22.50;84.00;;;21.12;49.04;99939.44;10400984;27;96971;-85
2023/06/14 10:24:05;;;;;;;3.63;2.22;;;22.40;81.10;;;20.98;49.67;99936.19;10417908;27;98310;-85
2023/06/14 10:29:09;;;;;;;3.55;2.35;;;22.30;80.70;;;21.02;50.79;99929.25;10427005;27;97877;-84
2023/06/14 10:34:23;;;;;;;6.15;2.17;;;22.20;81.50;;;21.02;48.62;99929.25;10442165;27;97079;-84
2023/06/14 10:39:26;;;;;;;5.60;3.10;;;22.20;78.70;;;21.08;51.14;99932.88;10413916;27;96540;-85
2023/06/14 10:44:29;;;;;;;4.75;3.40;;;22.30;80.80;;;21.26;53.89;99937.22;10438477;27;98533;-84
2023/06/14 10:49:44;;;;;;;3.58;2.78;;;22.30;83.40;;;21.58;53.49;99932.09;10452751;27;96696;-84
2023/06/14 10:55:21;;;;;;;7.90;3.85;;;22.60;83.40;;;21.73;52.96;99928.81;10429888;27;96834;-85
2023/06/14 11:00:28;;;;;;;6.10;3.72;;;22.80;83.10;;;21.76;53.99;99933.72;10451884;27;96626;-84
2023/06/14 11:06:13;;;;;;;5.57;3.22;;;22.90;83.50;;;21.87;52.73;99935.53;10446170;27;96479;-84
2023/06/14 11:11:18;;;;;;;6.75;2.70;;;23.00;83.00;;;21.82;52.38;99936.25;10441801;27;96715;-85
2023/06/14 11:16:27;;;;;;;4.95;2.63;;;22.90;81.60;;;21.75;50.74;99934.78;10412945;27;96436;-84
2023/06/14 11:21:33;;;;;;;4.95;3.05;;;22.90;80.30;;;21.59;51.13;99918.34;10427952;27;96441;-84
2023/06/14 11:26:40;;;;;;;4.97;2.75;;;22.80;79.70;;;21.41;49.73;99915.91;10399896;27;97411;-84
2023/06/14 11:31:47;;;;;;;3.53;2.80;;;22.50;78.60;;;21.28;50.55;99926.97;10422631;27;96634;-84
2023/06/14 11:36:50;;;;;;;4.40;2.40;;;22.40;78.60;;;21.60;51.07;99920.00;10428709;27;96430;-84
2023/06/14 11:41:55;;;;;;;3.47;2.03;;;22.60;79.10;;;21.94;46.59;99916.41;10441888;27;96523;-84
2023/06/14 11:46:58;;;;;;;3.90;2.45;;;23.00;75.50;;;22.24;45.72;99908.72;10426962;27;96816;-85
2023/06/14 11:52:01;;;;;;;3.97;1.83;;;23.30;73.60;;;22.55;43.80;99912.63;10420228;27;96850;-85
2023/06/14 11:57:07;;;;;;;7.43;2.78;;;23.70;71.20;;;22.76;43.26;99915.56;10417057;27;96871;-85
2023/06/14 12:02:14;;;;;;;7.15;2.40;;;23.90;69.00;;;23.01;41.83;99901.47;10418722;27;97643;-85
2023/06/14 12:07:19;;;;;;;4.85;2.38;;;24.20;68.10;;;23.04;40.15;99907.22;10414434;27;96971;-85
2023/06/14 12:12:25;;;;;;;3.47;1.88;;;24.30;64.70;;;23.17;40.10;99901.38;10420608;27;97223;-85
2023/06/14 12:17:36;;;;;;;7.60;2.70;;;24.40;64.20;;;23.37;38.50;99898.00;10419395;27;97653;-84
2023/06/14 12:22:53;;;;;;;7.65;3.03;;;24.70;62.70;;;23.41;38.98;99890.97;10410992;27;96967;-85
2023/06/14 12:27:57;;;;;;;2.60;1.90;;;24.80;62.40;;;23.46;38.23;99893.75;10421135;27;96619;-85
2023/06/14 12:33:03;;;;;;;3.38;2.22;;;24.90;61.30;;;23.74;37.87;99902.63;10412424;27;98282;-86
2023/06/14 12:38:07;;;;;;;3.00;1.90;;;25.50;59.10;;;23.93;35.64;99897.56;10424132;27;96601;-84
2023/06/14 12:43:10;;;;;;;3.28;2.03;;;25.90;57.30;;;24.13;36.58;99896.88;10437354;27;96666;-85
2023/06/14 12:48:13;;;;;;;2.75;1.83;;;26.30;57.10;;;24.08;36.40;99894.13;10424640;27;96695;-84
2023/06/14 12:53:17;;;;;;;2.50;2.00;;;26.00;55.90;;;23.88;35.18;99900.28;10419284;27;96612;-84
2023/06/14 12:58:20;;;;;;;3.28;2.00;;;25.60;55.70;;;23.78;36.32;99895.59;10434154;27;97491;-85
2023/06/14 13:03:23;;;;;;;3.13;2.10;;;25.20;56.00;;;23.49;35.96;99892.38;10425211;27;96520;-84
2023/06/14 13:08:27;;;;;;;2.88;2.10;;;24.90;55.80;;;23.28;36.80;99890.63;10406604;27;96574;-84
2023/06/14 13:13:30;;;;;;;3.22;1.90;;;24.60;56.70;;;23.27;38.13;99881.66;10416512;27;97450;-85
2023/06/14 13:18:35;;;;;;;5.18;2.05;;;24.50;58.00;;;23.39;38.21;99886.88;10383659;28;96581;-85
2023/06/14 13:23:38;;;;;;;2.92;2.10;;;24.60;58.00;;;23.50;35.58;99886.69;10417819;27;96978;-85
2023/06/14 13:28:42;;;;;;;3.97;2.10;;;24.80;56.00;;;23.44;38.53;99884.22;10440296;27;96985;-86
2023/06/14 13:33:45;;;;;;;3.92;2.13;;;24.60;57.80;;;23.31;39.62;99890.91;10403739;27;97441;-85
2023/06/14 13:38:48;;;;;;;3.38;2.17;;;24.50;58.80;;;23.09;39.71;99882.88;10409282;27;96876;-85
2023/06/14 13:43:51;;;;;;;4.25;2.03;;;24.30;58.90;;;23.02;39.42;99873.31;10386003;27;96967;-86
2023/06/14 13:48:54;;;;;;;3.30;2.30;;;24.20;59.00;;;23.24;40.62;99861.28;10452864;27;96515;-85
2023/06/14 13:53:57;;;;;;;5.22;2.40;;;24.30;60.20;;;23.52;40.11;99870.19;10445437;27;96550;-86
2023/06/14 13:59:00;;;;;;;5.25;2.47;;;24.60;59.60;;;23.63;38.81;99869.22;10420758;27;97195;-86
2023/06/14 14:04:05;;;;;;;4.45;2.20;;;24.80;58.60;;;23.55;38.77;99872.34;10429553;27;96669;-85
2023/06/14 14:09:09;;;;;;;3.67;2.15;;;24.70;58.40;;;23.64;39.42;99865.41;10414782;27;96449;-85
2023/06/14 14:14:12;;;;;;;3.67;2.50;;;24.80;59.20;;;23.75;38.51;99866.31;10396294;27;98198;-86
2023/06/14 14:19:15;;;;;;;4.57;2.10;;;24.80;58.20;;;23.97;37.53;99863.41;10407240;27;96618;-86
2023/06/14 14:24:18;;;;;;;4.72;2.30;;;25.10;58.20;;;23.97;38.10;99863.41;10400183;27;96380;-86
2023/06/14 14:29:22;;;;;;;4.45;2.20;;;25.20;57.60;;;24.00;38.49;99865.63;10428795;27;96759;-85
2023/06/14 14:34:29;;;;;;;4.45;2.30;;;25.10;57.90;;;23.98;37.87;99857.72;10422201;27;97230;-86
2023/06/14 14:39:33;;;;;;;3.38;2.20;;;25.20;57.40;;;23.82;37.99;99872.31;10420455;27;96610;-85
2023/06/14 14:44:36;;;;;;;6.18;2.10;;;25.10;57.40;;;23.87;39.72;99863.34;10424514;27;96558;-86
2023/06/14 14:49:39;;;;;;;3.50;2.25;;;25.00;58.70;;;24.25;39.53;99868.44;10427704;27;98093;-85
2023/06/14 14:54:43;;;;;;;2.67;2.05;;;25.40;58.90;;;24.20;39.18;99865.69;10444166;27;96914;-85
2023/06/14 14:59:46;;;;;;;2.60;1.73;;;25.50;58.20;;;23.80;39.93;99860.06;10407508;27;99135;-85
2023/06/14 15:04:50;;;;;;;3.28;2.13;;;25.10;58.90;;;23.48;41.15;99863.63;10449127;27;98339;-85
2023/06/14 15:09:53;;;;;;;4.45;2.40;;;24.70;60.30;;;23.06;42.52;99863.59;10395017;27;97356;-86
2023/06/14 15:14:56;;;;;;;9.35;2.42;;;24.20;61.20;;;22.66;43.53;99872.91;10407512;27;97330;-84
2023/06/14 15:19:59;;;;;;;8.85;2.53;;;23.80;62.40;;;22.35;44.08;99869.06;10410847;27;97060;-85
2023/06/14 15:25:03;;;;;;;6.63;2.85;;;23.50;63.00;;;22.10;45.19;99869.59;10430818;27;96745;-86
2023/06/14 15:30:07;;;;;;;3.45;2.10;;;23.20;64.20;;;21.96;45.05;99871.00;10425162;27;97251;-84
2023/06/14 15:35:11;;;;;;;3.28;2.05;;;23.00;64.60;;;21.84;45.87;99866.53;10418885;27;96545;-84
2023/06/14 15:40:16;;;;;;;2.42;1.88;;;22.90;65.30;;;21.73;46.07;99864.75;10420211;27;96431;-84
2023/06/14 15:45:19;;;;;;;3.80;2.05;;;22.70;65.30;;;21.65;46.64;99857.03;10425341;27;96615;-84
2023/06/14 15:50:23;;;;;;;3.60;2.08;;;22.70;65.90;;;21.59;45.83;99864.28;10426304;27;96669;-84
2023/06/14 15:55:26;;;;;;;6.22;2.40;;;22.70;65.50;;;21.55;46.71;99865.84;10421391;27;96648;-84
2023/06/14 16:00:29;;;;;;;3.38;1.92;;;22.60;65.90;;;21.66;46.64;99874.91;10418635;27;97158;-84
2023/06/14 16:05:32;;;;;;;6.40;2.25;;;22.70;65.90;;;21.75;45.76;99869.91;10457461;27;97091;-84
2023/06/14 16:10:36;;;;;;;4.53;1.98;;;22.80;65.00;;;21.69;45.08;99865.47;10423800;27;98141;-84
2023/06/14 16:15:39;;;;;;;2.95;2.22;;;22.70;65.20;;;21.62;45.11;99862.94;10407134;27;97283;-84
2023/06/14 16:20:42;;;;;;;3.65;1.95;;;22.70;64.60;;;21.56;45.59;99880.97;10425001;27;98259;-84
2023/06/14 16:25:45;;;;;;;2.42;1.80;;;22.60;64.70;;;21.48;45.63;99878.72;10408024;27;96632;-84
2023/06/14 16:30:48;;;;;;;4.22;2.08;;;22.60;64.90;;;21.32;46.55;99884.94;10414857;27;97578;-84
2023/06/14 16:35:51;;;;;;;4.63;2.05;;;22.40;65.60;;;21.23;47.24;99891.75;10425341;27;96587;-84
2023/06/14 16:40:55;;;;;;;5.15;2.03;;;22.30;66.40;;;21.11;46.74;99889.13;10400288;27;96622;-84
2023/06/14 16:45:58;;;;;;;4.70;2.00;;;22.20;66.20;;;21.02;46.31;99901.41;10429661;27;96865;-84
2023/06/14 16:51:01;;;;;;;2.42;1.98;;;22.10;65.90;;;21.05;45.79;99911.72;10448046;27;96457;-84
2023/06/14 16:56:08;;;;;;;5.45;1.80;;;22.00;65.60;;;21.09;47.00;99907.47;10441174;27;96650;-85
2023/06/14 17:01:11;;;;;;;4.05;1.80;;;22.20;66.30;;;21.08;48.63;99912.06;10417746;27;97039;-84
2023/06/14 17:06:14;;;;;;;4.38;2.10;;;22.10;67.40;;;20.99;49.29;99913.53;10411632;27;97227;-84
2023/06/14 17:11:18;;;;;;;3.97;2.05;;;22.00;68.10;;;20.86;50.03;99919.22;10402476;27;96429;-85
2023/06/14 17:16:21;;;;;;;4.93;2.00;;;21.90;68.90;;;20.74;50.36;99918.47;10402430;27;96649;-84
2023/06/14 17:21:25;;;;;;;4.70;2.08;;;21.90;69.30;;;20.63;50.74;99919.31;10424139;27;96513;-83
2023/06/14 17:26:28;;;;;;;3.42;2.10;;;21.80;69.50;;;20.59;50.11;99927.09;10387101;27;96785;-84
2023/06/14 17:31:31;;;;;;;3.22;2.00;;;21.70;69.60;;;20.49;50.78;99922.31;10405301;27;97544;-84
2023/06/14 17:36:34;;;;;;;7.20;2.08;;;21.70;69.70;;;20.45;50.97;99933.78;10406501;27;97783;-84
2023/06/14 17:41:37;;;;;;;3.35;2.10;;;21.60;69.70;;;20.45;51.13;99936.47;10406418;27;96631;-84
2023/06/14 17:46:40;;;;;;;6.60;1.83;;;21.60;69.90;;;20.46;50.96;99941.69;10406477;27;97324;-84
2023/06/14 17:51:43;;;;;;;2.97;1.60;;;21.60;70.10;;;20.49;52.23;99935.78;10436781;27;96536;-85
2023/06/14 17:56:47;;;;;;;4.72;2.25;;;21.60;70.50;;;20.51;52.08;99949.91;10405800;27;96559;-84
2023/06/14 18:01:50;;;;;;;4.30;2.05;;;21.60;70.60;;;20.44;51.34;99943.75;10410767;28;98653;-84
2023/06/14 18:06:53;;;;;;;4.18;2.22;;;21.50;70.70;;;20.39;52.33;99942.81;10380185;28;96861;-84
2023/06/14 18:11:56;;;;;;;3.70;2.22;;;21.50;71.10;;;20.29;52.88;99957.75;10343938;28;96459;-84
2023/06/14 18:17:00;;;;;;;5.47;2.13;;;21.40;72.00;;;20.13;54.64;99947.69;10366718;28;97354;-84
2023/06/14 18:22:05;;;;;;;3.25;2.17;;;21.20;73.00;;;19.97;55.43;99948.41;10337867;28;96896;-84
2023/06/14 18:27:10;;;;;;;4.28;2.20;;;21.00;73.80;;;19.77;55.79;99957.66;10379021;28;96649;-84
2023/06/14 18:32:14;;;;;;;4.68;2.42;;;20.80;74.40;;;19.58;55.71;99957.97;10363768;28;96597;-84
2023/06/14 18:37:17;;;;;;;4.70;2.30;;;20.60;74.70;;;19.37;56.36;99960.19;10373782;28;96521;-84
2023/06/14 18:42:22;;;;;;;3.80;1.70;;;20.50;75.10;;;19.19;57.10;99976.38;10366735;28;96619;-83
2023/06/14 18:47:25;;;;;;;4.88;2.10;;;20.30;75.60;;;19.01;57.88;99977.25;10377677;28;96701;-83
2023/06/14 18:52:28;;;;;;;3.25;1.98;;;20.10;76.40;;;18.78;59.63;99986.09;10393814;28;98707;-84
2023/06/14 18:57:32;;;;;;;3.85;2.00;;;19.90;77.40;;;18.57;61.13;99994.56;10402014;28;96659;-84
2023/06/14 19:02:35;;;;;;;5.60;2.88;;;19.60;78.90;;;18.32;63.23;99991.97;10400120;27;96979;-84
2023/06/14 19:07:38;;;;;;;4.43;2.67;;;19.40;80.60;;;18.11;63.73;99995.88;10419086;27;96648;-83
2023/06/14 19:12:41;;;;;;;4.13;2.42;;;19.20;81.40;;;17.93;64.18;100002.06;10420996;27;96915;-83
2023/06/14 19:17:59;;;;;;;4.80;2.40;;;19.00;81.80;;;17.78;64.85;100010.47;10418868;27;96636;-83
2023/06/14 19:23:03;;;;;;;11.68;2.83;;;18.80;82.20;;;17.59;64.03;100017.63;10426994;27;96761;-82
2023/06/14 19:28:06;;;;;;;6.40;2.47;;;18.60;82.40;;;17.44;63.80;100025.16;10411977;27;96692;-83
2023/06/14 19:33:09;;;;;;;4.65;2.85;;;18.50;82.30;;;17.31;63.76;100015.31;10385880;27;97069;-83
2023/06/14 19:38:12;;;;;;;3.58;2.33;;;18.40;82.40;;;17.18;63.92;100020.75;10428455;27;98345;-83
2023/06/14 19:43:16;;;;;;;3.75;2.60;;;18.20;82.30;;;17.10;64.02;100026.41;10412656;27;96684;-83
2023/06/14 19:48:18;;;;;;;3.55;2.90;;;18.20;82.60;;;17.01;64.08;100036.53;10431462;27;97494;-83
2023/06/14 19:53:23;;;;;;;4.93;3.28;;;18.10;82.70;;;16.94;64.40;100048.34;10450747;27;98175;-83
2023/06/14 19:58:26;;;;;;;5.40;3.08;;;18.00;83.00;;;16.83;64.56;100039.91;10429314;27;97198;-83
2023/06/14 20:03:29;;;;;;;6.05;2.80;;;17.90;83.10;;;16.76;64.97;100039.13;10406322;27;97703;-83
2023/06/14 20:08:33;;;;;;;3.40;2.50;;;17.80;83.40;;;16.71;65.27;100046.97;10392782;27;98210;-83
2023/06/14 20:13:36;;;;;;;4.20;2.75;;;17.70;83.60;;;16.65;65.32;100037.06;10408760;27;97465;-82
2023/06/14 20:18:39;;;;;;;3.97;2.53;;;17.70;83.80;;;16.59;65.35;100041.41;10438297;27;96777;-82
2023/06/14 20:23:42;;;;;;;4.43;2.38;;;17.70;83.90;;;16.50;64.97;100036.50;10424007;27;96598;-83
2023/06/14 20:28:44;;;;;;;5.03;2.42;;;17.60;83.80;;;16.40;65.34;100028.88;10408788;27;97231;-83
2023/06/14 20:33:52;;;;;;;4.07;2.50;;;17.50;84.00;;;16.34;65.68;100032.41;10431797;27;96796;-83
2023/06/14 20:38:57;;;;;;;5.05;2.65;;;17.40;84.30;;;16.31;66.30;100030.13;10420340;27;96798;-83
2023/06/14 20:44:01;;;;;;;5.95;2.58;;;17.40;84.80;;;16.30;66.43;100028.47;10438492;27;97455;-83
2023/06/14 20:49:04;;;;;;;5.55;2.45;;;17.40;85.10;;;16.27;66.76;100032.41;10428520;27;96794;-83
2023/06/14 20:54:07;;;;;;;4.25;2.45;;;17.40;85.40;;;16.24;67.10;100037.38;10426891;27;96694;-83
2023/06/14 20:59:10;;;;;;;3.50;2.50;;;17.30;85.70;;;16.26;67.06;100033.47;10408560;27;97261;-83
2023/06/14 21:04:16;;;;;;;3.65;2.38;;;17.40;85.90;;;16.31;67.24;100039.03;10427445;27;97502;-85